Proctorsville, Vermont
Current Conditions -  °F | °C
As of 9:54 AM on Monday 24 Nov 2014 (Local Time) from KVSF Reporting Station
Haze Haze  
Wind Chill: 41°   Ceiling: 800
Heat Index: 41°   Visibility: 1.5mi
Dew Point: 40°   Wind: 3mph
Humidity: 96%   Direction: 10°N
Pressure: 29.65"   Gusts: NA
Location:  43.38°N, 72.64°W
Report Text: KVSF 241454Z AUTO 01003KT 1 1/2SM BR OVC008 05/04 A2965 RMK AO2 RAE43 CIG 006V011 SLP046 P0002 60022 T00500044 56035
Loading
Personal Weather Stations






























Interactive Weather Map New forecast layout! Learn more

10-Day Weather Forecast

Advertisements
Track Severe Weather on mobile